Time;durP1;ratioP1;P1;durP2;ratioP2;P2;SDS_P1;SDS_P2;PMS_P1;PMS_P2;Temp;Humidity;BMP_temperature;BMP_pressure;BME280_temperature;BME280_humidity;BME280_pressure;Samples;Min_cycle;Max_cycle;Signal;HPM_P1;HPM_P2
2021/03/26 00:00:51;;;;;;;10.20;5.93;;;;;;;7.82;52.62;95846.75;5011376;28;20038;-66
2021/03/26 00:03:20;;;;;;;9.93;5.20;;;;;;;7.70;52.65;95840.97;5011183;28;20125;-67
2021/03/26 00:05:48;;;;;;;12.23;5.80;;;;;;;7.67;53.00;95848.63;5011358;28;20443;-67
2021/03/26 00:08:15;;;;;;;9.80;6.25;;;;;;;7.36;53.28;95795.75;5010928;28;20665;-65
2021/03/26 00:10:41;;;;;;;10.43;6.43;;;;;;;7.46;52.96;95824.84;5011201;28;20109;-66
2021/03/26 00:13:07;;;;;;;8.73;5.85;;;;;;;7.52;53.63;95834.38;5012400;28;20026;-67
2021/03/26 00:15:34;;;;;;;11.57;5.93;;;;;;;7.43;53.21;95827.25;5010833;28;20042;-66
2021/03/26 00:18:01;;;;;;;9.57;6.05;;;;;;;7.38;54.32;95828.03;5009801;28;20038;-66
2021/03/26 00:20:26;;;;;;;9.30;6.15;;;;;;;7.40;53.79;95833.84;5011033;28;20560;-68
2021/03/26 00:22:52;;;;;;;10.25;5.82;;;;;;;7.10;53.94;95797.63;5010811;28;20032;-67
2021/03/26 00:25:17;;;;;;;7.45;6.00;;;;;;;7.08;53.65;95801.59;5028149;28;20026;-65
2021/03/26 00:27:42;;;;;;;9.15;6.05;;;;;;;7.16;53.95;95824.84;5010854;28;20084;-66
2021/03/26 00:30:10;;;;;;;7.57;5.65;;;;;;;7.27;54.66;95848.44;5010993;28;20361;-66
2021/03/26 00:32:36;;;;;;;9.63;5.68;;;;;;;7.02;54.51;95824.63;5010466;28;20070;-66
2021/03/26 00:35:03;;;;;;;9.23;6.30;;;;;;;7.02;54.70;95822.75;5010753;28;20523;-67
2021/03/26 00:37:29;;;;;;;9.35;5.97;;;;;;;6.97;55.18;95824.63;5027788;28;20049;-66
2021/03/26 00:39:54;;;;;;;6.32;4.90;;;;;;;6.75;54.51;95795.75;5010799;28;20069;-67
2021/03/26 00:42:19;;;;;;;8.02;5.88;;;;;;;6.80;55.26;95803.69;5025643;28;20041;-67
2021/03/26 00:44:45;;;;;;;6.45;4.68;;;;;;;6.74;55.48;95810.81;5010979;28;20443;-65
2021/03/26 00:47:11;;;;;;;16.25;6.68;;;;;;;6.96;55.51;95857.38;5010523;28;20579;-67
2021/03/26 00:49:36;;;;;;;13.60;6.40;;;;;;;6.66;55.30;95815.84;5012634;28;20030;-66
2021/03/26 00:52:04;;;;;;;12.57;6.43;;;;;;;6.87;55.54;95858.97;5010111;28;20117;-66
2021/03/26 00:54:30;;;;;;;7.35;5.20;;;;;;;6.66;55.51;95837.78;5010640;28;20061;-65
2021/03/26 00:56:55;;;;;;;9.32;5.35;;;;;;;6.64;55.92;95839.09;5025451;28;20538;-66
2021/03/26 00:59:20;;;;;;;9.88;5.10;;;;;;;6.56;56.04;95827.19;5010510;28;20137;-67
2021/03/26 01:01:46;;;;;;;8.73;5.32;;;;;;;6.36;56.30;95787.50;5010044;28;20376;-68
2021/03/26 01:04:11;;;;;;;6.40;4.68;;;;;;;6.34;55.97;95800.16;5027578;28;20076;-67
2021/03/26 01:06:37;;;;;;;6.43;4.90;;;;;;;6.59;56.94;95850.44;5010373;28;20038;-67
2021/03/26 01:09:04;;;;;;;7.68;5.53;;;;;;;6.56;56.50;95850.19;5010148;28;20180;-66
2021/03/26 01:11:34;;;;;;;7.25;5.30;;;;;;;6.20;57.30;95795.41;5009079;28;20045;-65
2021/03/26 01:14:01;;;;;;;6.63;5.22;;;;;;;6.54;57.16;95836.44;5010074;28;20089;-66
2021/03/26 01:16:27;;;;;;;7.88;5.15;;;;;;;6.53;57.09;95842.78;5027297;28;20030;-66
2021/03/26 01:18:53;;;;;;;11.68;4.95;;;;;;;6.52;57.02;95834.06;5009969;28;20057;-67
2021/03/26 01:21:26;;;;;;;8.40;5.38;;;;;;;6.36;56.55;95813.94;5009598;28;20427;-66
2021/03/26 01:23:52;;;;;;;6.78;5.10;;;;;;;6.47;56.93;95840.13;5010261;28;20045;-67
2021/03/26 01:26:17;;;;;;;6.85;5.32;;;;;;;6.28;57.30;95811.78;5025123;23;20034;-64
2021/03/26 01:28:43;;;;;;;6.97;5.55;;;;;;;6.08;57.45;95781.59;5011397;28;20108;-66
2021/03/26 01:31:08;;;;;;;6.18;5.13;;;;;;;5.99;57.63;95773.41;5031339;28;20105;-65
2021/03/26 01:33:34;;;;;;;6.93;5.05;;;;;;;5.99;57.06;95773.41;5029232;28;20496;-66
2021/03/26 01:35:59;;;;;;;7.25;4.97;;;;;;;6.31;57.58;95832.41;5011454;28;20041;-66
2021/03/26 01:38:26;;;;;;;9.32;5.28;;;;;;;6.32;57.47;95832.16;5029201;28;20615;-66
2021/03/26 01:40:56;;;;;;;6.90;5.45;;;;;;;6.40;57.84;95834.28;5029190;28;20399;-64
2021/03/26 01:43:30;;;;;;;6.60;4.65;;;;;;;6.38;57.55;95844.31;5013214;28;20119;-65
2021/03/26 01:45:57;;;;;;;13.82;5.45;;;;;;;6.19;57.54;95809.66;5029289;28;20514;-66
2021/03/26 01:48:30;;;;;;;8.63;5.47;;;;;;;6.36;57.74;95835.06;5011447;28;20092;-65
2021/03/26 01:50:57;;;;;;;6.45;4.63;;;;;;;6.29;57.93;95834.50;5011120;28;20656;-66
2021/03/26 01:53:24;;;;;;;6.95;5.55;;;;;;;6.17;58.62;95824.97;5028870;28;20387;-66
2021/03/26 01:55:51;;;;;;;5.72;4.80;;;;;;;6.28;58.26;95828.44;5011132;28;20037;-66
2021/03/26 01:58:21;;;;;;;10.63;5.57;;;;;;;6.13;58.55;95802.75;5030783;28;20021;-66
2021/03/26 02:00:51;;;;;;;8.80;5.60;;;;;;;6.16;58.59;95806.72;5028901;28;20157;-65
2021/03/26 02:03:28;;;;;;;17.05;6.63;;;;;;;6.30;57.88;95825.53;5028593;28;20038;-65
2021/03/26 02:05:56;;;;;;;12.20;5.70;;;;;;;6.29;58.42;95829.22;5028789;28;20033;-66
2021/03/26 02:08:25;;;;;;;13.55;5.97;;;;;;;6.28;58.20;95825.00;5011010;28;20038;-66
2021/03/26 02:10:52;;;;;;;11.00;5.70;;;;;;;6.30;58.33;95820.25;5028443;28;20033;-65
2021/03/26 02:13:32;;;;;;;9.43;5.50;;;;;;;6.30;58.44;95817.63;5012745;28;20026;-64
2021/03/26 02:15:59;;;;;;;9.77;6.43;;;;;;;6.24;58.08;95817.59;5009766;28;20041;-65
2021/03/26 02:18:32;;;;;;;11.18;6.05;;;;;;;6.20;58.74;95821.81;5028466;28;20042;-65
2021/03/26 02:21:08;;;;;;;6.85;5.80;;;;;;;6.16;58.23;95820.72;5010733;28;20068;-66
2021/03/26 02:23:36;;;;;;;7.90;5.85;;;;;;;6.11;58.69;95820.72;5020868;28;20038;-65
2021/03/26 02:26:08;;;;;;;8.18;5.80;;;;;;;6.10;58.98;95820.97;4994273;28;20606;-65
2021/03/26 02:28:34;;;;;;;7.18;5.50;;;;;;;6.08;58.83;95825.72;5030439;28;20033;-65
2021/03/26 02:31:00;;;;;;;9.98;5.63;;;;;;;5.64;58.63;95758.19;5010903;28;20051;-66
2021/03/26 02:33:26;;;;;;;6.93;5.78;;;;;;;6.02;58.65;95822.25;5028368;28;20033;-65
2021/03/26 02:36:17;;;;;;;8.32;5.85;;;;;;;6.01;59.56;95825.97;5010524;28;20095;-66
2021/03/26 02:38:51;;;;;;;9.15;5.75;;;;;;;5.98;59.64;95821.97;5027716;28;20451;-65
2021/03/26 02:41:43;;;;;;;6.82;5.28;;;;;;;5.83;59.26;95797.31;5027993;28;20499;-65
2021/03/26 02:44:20;;;;;;;7.03;4.93;;;;;;;5.96;58.99;95825.94;5028437;28;20037;-66
2021/03/26 02:46:51;;;;;;;6.93;5.53;;;;;;;5.95;59.40;95830.44;5028280;28;20108;-65
2021/03/26 02:49:43;;;;;;;8.63;5.63;;;;;;;5.93;59.52;95834.34;5030379;28;20348;-65
2021/03/26 02:52:11;;;;;;;;;;;;;;;5.90;59.26;95835.66;5028856;28;20073;-64
2021/03/26 02:55:00;;;;;;;11.95;5.93;;;;;;;5.88;59.71;95837.72;5028337;28;19979;-65
2021/03/26 02:57:31;;;;;;;7.82;5.63;;;;;;;5.78;59.39;95829.75;5022184;28;20041;-67
2021/03/26 03:00:29;;;;;;;9.63;5.53;;;;;;;5.78;59.37;95835.03;5028250;28;20168;-66
2021/03/26 03:02:57;;;;;;;8.60;5.38;;;;;;;5.79;59.84;95843.78;5024901;28;20049;-64
2021/03/26 03:05:36;;;;;;;11.32;5.63;;;;;;;5.65;59.60;95825.75;5028197;28;20111;-66
2021/03/26 03:08:09;;;;;;;9.18;5.32;;;;;;;5.76;59.71;95846.91;5027817;28;20112;-66
2021/03/26 03:10:41;;;;;;;9.40;5.55;;;;;;;5.74;59.81;95839.25;5030155;28;20029;-65
2021/03/26 03:13:13;;;;;;;7.13;5.07;;;;;;;5.73;59.66;95849.03;5028582;28;20041;-66
2021/03/26 03:15:48;;;;;;;10.02;5.55;;;;;;;5.51;59.53;95813.25;5028245;28;20160;-66
2021/03/26 03:18:36;;;;;;;7.90;5.00;;;;;;;5.71;60.09;95843.19;5027996;28;20033;-67
2021/03/26 03:21:08;;;;;;;8.43;5.25;;;;;;;5.71;60.22;95840.56;5009216;28;20041;-66
2021/03/26 03:23:42;;;;;;;7.85;5.25;;;;;;;5.64;59.95;95828.66;5009877;28;20030;-65
2021/03/26 03:26:42;;;;;;;10.23;6.25;;;;;;;5.79;59.83;95841.16;5027987;28;20029;-66
2021/03/26 03:29:11;;;;;;;7.47;5.13;;;;;;;5.86;59.64;95831.94;5016736;28;20037;-66
2021/03/26 03:31:47;;;;;;;7.03;4.93;;;;;;;5.79;59.41;95810.25;5029722;28;20091;-65
2021/03/26 03:34:28;;;;;;;6.68;4.70;;;;;;;5.96;59.50;95831.22;5028400;28;20075;-64
2021/03/26 03:37:26;;;;;;;6.72;4.88;;;;;;;5.95;59.37;95832.28;5027588;28;20049;-66
2021/03/26 03:39:58;;;;;;;9.52;5.53;;;;;;;5.86;58.98;95812.66;5027918;28;20037;-65
2021/03/26 03:42:47;;;;;;;6.28;5.07;;;;;;;5.94;58.93;95828.06;5027730;28;20033;-65
2021/03/26 03:45:22;;;;;;;5.68;4.70;;;;;;;5.83;59.12;95808.66;5027958;28;20067;-64
2021/03/26 03:47:53;;;;;;;8.20;5.05;;;;;;;5.92;59.27;95815.09;5028163;28;20508;-65
2021/03/26 03:50:28;;;;;;;8.43;4.65;;;;;;;5.91;59.42;95821.41;5031055;28;20041;-66
2021/03/26 03:52:58;;;;;;;8.35;4.90;;;;;;;5.75;58.90;95793.34;5031155;28;20666;-65
2021/03/26 03:55:31;;;;;;;6.10;4.97;;;;;;;5.70;59.54;95791.47;5033314;28;20029;-64
2021/03/26 03:58:00;;;;;;;10.05;5.07;;;;;;;5.83;59.04;95815.78;5031211;28;20042;-66
2021/03/26 04:00:40;;;;;;;6.57;4.82;;;;;;;5.79;59.29;95812.09;5031158;28;20030;-66
2021/03/26 04:03:15;;;;;;;6.18;5.03;;;;;;;5.72;59.17;95815.75;5030944;28;20030;-65
2021/03/26 04:06:09;;;;;;;6.50;4.65;;;;;;;5.64;59.61;95810.97;5031133;28;20120;-66
2021/03/26 04:08:57;;;;;;;7.00;5.10;;;;;;;5.39;59.42;95771.25;5031126;28;20040;-65
2021/03/26 04:11:51;;;;;;;8.90;5.13;;;;;;;5.53;59.75;95809.31;5024406;28;20045;-66
2021/03/26 04:14:35;;;;;;;8.25;4.88;;;;;;;5.46;59.68;95811.38;5011256;28;20452;-65
2021/03/26 04:17:05;;;;;;;7.10;4.35;;;;;;;5.43;59.91;95811.91;5010811;28;20137;-65
2021/03/26 04:19:36;;;;;;;7.57;4.53;;;;;;;5.40;60.30;95807.13;5013109;28;20117;-65
2021/03/26 04:22:10;;;;;;;12.27;4.75;;;;;;;5.22;60.02;95790.66;5030247;28;20038;-65
2021/03/26 04:25:01;;;;;;;9.57;4.32;;;;;;;5.34;60.18;95816.84;5030941;28;20053;-66
2021/03/26 04:27:35;;;;;;;6.30;4.50;;;;;;;4.93;60.63;95803.38;5030583;28;20045;-66
2021/03/26 04:30:21;;;;;;;8.43;4.75;;;;;;;5.00;61.35;95821.59;5030730;28;20492;-66
2021/03/26 04:32:48;;;;;;;8.35;5.10;;;;;;;5.02;61.06;95810.81;5030129;28;20030;-66
2021/03/26 04:35:16;;;;;;;9.25;4.50;;;;;;;5.06;60.87;95817.94;5030534;28;20038;-65
2021/03/26 04:38:00;;;;;;;8.75;4.75;;;;;;;5.14;60.94;95820.13;5030295;28;20030;-64
2021/03/26 04:40:32;;;;;;;6.85;4.32;;;;;;;5.07;60.70;95811.66;5032478;28;20032;-65
2021/03/26 04:43:24;;;;;;;;;;;;;;;5.13;60.72;95829.09;5030542;28;20258;-64
2021/03/26 04:46:06;;;;;;;6.72;4.82;;;;;;;5.11;60.97;95825.91;5006879;28;20387;-65
2021/03/26 04:48:40;;;;;;;;;;;;;;;4.90;61.68;95826.78;5030209;28;20033;-64
2021/03/26 04:51:35;;;;;;;9.20;4.68;;;;;;;5.01;61.26;95827.66;5028735;28;20294;-65
2021/03/26 04:54:19;;;;;;;8.02;4.80;;;;;;;4.95;61.17;95808.38;5026263;28;20053;-66
2021/03/26 04:56:52;;;;;;;8.20;4.57;;;;;;;4.52;61.15;95743.47;5029797;28;20045;-65
2021/03/26 04:59:23;;;;;;;9.23;4.07;;;;;;;4.95;61.71;95821.56;5029798;28;20348;-65
2021/03/26 05:01:52;;;;;;;6.70;4.60;;;;;;;4.82;61.21;95793.00;5029718;28;20025;-66
2021/03/26 05:04:22;;;;;;;8.80;4.35;;;;;;;4.83;61.13;95802.50;5032060;28;20029;-64
2021/03/26 05:07:04;;;;;;;7.13;4.25;;;;;;;4.92;60.96;95816.81;5029927;28;20048;-65
2021/03/26 05:09:34;;;;;;;7.20;4.53;;;;;;;4.84;61.03;95804.06;5029969;28;20042;-65
2021/03/26 05:12:09;;;;;;;6.57;4.38;;;;;;;4.61;61.24;95769.09;5029407;28;20033;-65
2021/03/26 05:14:58;;;;;;;11.13;4.28;;;;;;;4.78;61.81;95797.19;5030025;28;20372;-65
2021/03/26 05:17:59;;;;;;;7.57;4.53;;;;;;;5.00;61.42;95820.81;5029625;28;20041;-65
2021/03/26 05:20:42;;;;;;;13.02;4.82;;;;;;;4.98;61.71;95821.06;5014288;28;20085;-65
2021/03/26 05:23:15;;;;;;;7.55;4.03;;;;;;;5.07;61.62;95819.56;4992602;28;20037;-66
2021/03/26 05:25:47;;;;;;;8.35;4.30;;;;;;;5.13;61.36;95823.81;5010371;28;20025;-66
2021/03/26 05:28:21;;;;;;;6.85;4.68;;;;;;;5.16;61.34;95825.16;5031397;28;20030;-64
2021/03/26 05:30:47;;;;;;;15.68;5.13;;;;;;;5.14;61.25;95809.59;5012087;28;20045;-66
2021/03/26 05:33:21;;;;;;;6.03;4.43;;;;;;;5.08;61.06;95796.63;5009573;28;20395;-65
2021/03/26 05:36:11;;;;;;;7.10;5.03;;;;;;;5.31;61.24;95825.25;5018994;28;20037;-65
2021/03/26 05:39:13;;;;;;;6.15;4.70;;;;;;;5.24;61.35;95835.25;5021147;28;20029;-66
2021/03/26 05:42:02;;;;;;;9.02;4.43;;;;;;;5.39;60.97;95826.66;4991646;28;20030;-65
2021/03/26 05:44:34;;;;;;;8.95;4.88;;;;;;;4.46;60.94;95665.44;5009520;28;20077;-65
2021/03/26 05:46:59;;;;;;;11.52;4.97;;;;;;;5.12;61.93;95837.28;5009338;28;20026;-64
2021/03/26 05:49:24;;;;;;;7.85;5.80;;;;;;;4.84;62.80;95825.16;5011344;28;20030;-66
2021/03/26 05:52:24;;;;;;;10.02;6.22;;;;;;;4.75;63.52;95826.66;5009451;28;20037;-66
2021/03/26 05:55:08;;;;;;;8.00;5.25;;;;;;;4.75;63.79;95821.38;5029040;28;20042;-65
2021/03/26 05:57:44;;;;;;;11.65;5.78;;;;;;;4.74;62.98;95773.16;5028626;28;20045;-65
2021/03/26 06:00:45;;;;;;;16.80;6.35;;;;;;;5.21;62.38;95825.97;5028892;28;20144;-64
2021/03/26 06:03:25;;;;;;;13.50;5.93;;;;;;;4.94;63.67;95826.03;5028771;28;20195;-65
2021/03/26 06:06:24;;;;;;;15.32;6.63;;;;;;;5.48;62.40;95823.28;5028646;28;20468;-65
2021/03/26 06:09:25;;;;;;;15.27;6.55;;;;;;;5.74;61.09;95818.16;5028537;28;20046;-65
2021/03/26 06:11:56;;;;;;;11.30;5.70;;;;;;;5.91;60.47;95824.06;5024303;28;20496;-65
2021/03/26 06:14:45;;;;;;;12.15;6.35;;;;;;;6.09;60.89;95829.94;5028756;28;20090;-66
2021/03/26 06:17:41;;;;;;;14.10;4.80;;;;;;;6.19;59.92;95816.75;5010749;28;20153;-66
2021/03/26 06:20:45;;;;;;;10.88;4.70;;;;;;;6.42;59.33;95820.81;5028429;28;20037;-65
2021/03/26 06:23:36;;;;;;;7.63;4.45;;;;;;;6.41;59.00;95796.25;5010528;28;20131;-65
2021/03/26 06:26:05;;;;;;;8.68;4.25;;;;;;;6.68;58.83;95829.59;5010338;28;20051;-65
2021/03/26 06:29:12;;;;;;;14.73;4.55;;;;;;;6.80;58.83;95816.91;4995161;28;20404;-66
2021/03/26 06:31:58;;;;;;;6.25;4.00;;;;;;;6.93;58.45;95813.75;4951116;28;20046;-65
2021/03/26 06:35:17;;;;;;;8.25;3.58;;;;;;;7.09;57.68;95816.41;4989489;28;20138;-64
2021/03/26 06:38:10;;;;;;;9.25;4.30;;;;;;;7.20;57.17;95818.78;4927617;29;20044;-64
2021/03/26 06:40:51;;;;;;;8.15;3.75;;;;;;;7.34;56.40;95820.91;4929810;29;20047;-67
2021/03/26 06:43:54;;;;;;;8.98;3.88;;;;;;;7.45;56.04;95812.66;4966530;28;20043;-67
2021/03/26 06:46:46;;;;;;;6.60;3.72;;;;;;;7.58;56.60;95819.28;4989346;28;20117;-67
2021/03/26 06:49:48;;;;;;;13.10;3.47;;;;;;;7.71;55.90;95813.41;4989314;28;20049;-67
2021/03/26 06:52:43;;;;;;;4.68;2.92;;;;;;;7.66;55.10;95770.28;4972548;28;20038;-66
2021/03/26 06:55:20;;;;;;;4.63;3.08;;;;;;;7.99;54.44;95800.63;4990236;28;20053;-65
2021/03/26 06:58:07;;;;;;;14.65;3.80;;;;;;;7.98;54.91;95780.47;4988066;28;20048;-65
2021/03/26 07:00:52;;;;;;;7.60;3.28;;;;;;;8.22;54.16;95810.59;4989793;28;20792;-69
2021/03/26 07:03:40;;;;;;;14.30;3.60;;;;;;;8.40;54.55;95801.28;4989364;28;20038;-67
2021/03/26 07:06:44;;;;;;;7.18;3.25;;;;;;;8.56;53.68;95797.47;4989809;28;20141;-70
2021/03/26 07:09:40;;;;;;;10.32;3.13;;;;;;;8.72;53.28;95800.00;4989955;28;20046;-70
2021/03/26 07:12:45;;;;;;;6.13;3.15;;;;;;;8.85;52.45;95794.06;4989303;28;20039;-67
2021/03/26 07:15:21;;;;;;;11.85;3.53;;;;;;;8.85;52.30;95773.66;4950296;28;20512;-69
2021/03/26 07:18:17;;;;;;;9.32;4.10;;;;;;;9.05;52.34;95791.25;4989558;28;20428;-61
2021/03/26 07:21:26;;;;;;;12.85;3.58;;;;;;;9.30;52.44;95795.56;4997200;28;20111;-62
2021/03/26 07:24:24;;;;;;;9.32;4.43;;;;;;;9.33;51.50;95771.13;5010881;28;20084;-62
2021/03/26 07:26:52;;;;;;;10.95;4.00;;;;;;;9.69;50.81;95792.03;5022198;28;20448;-67
2021/03/26 07:29:43;;;;;;;12.82;3.67;;;;;;;9.34;50.80;95694.94;5023253;28;20059;-66
2021/03/26 07:32:29;;;;;;;10.05;3.58;;;;;;;9.96;49.91;95764.88;5013053;28;20108;-65
2021/03/26 07:35:28;;;;;;;11.27;3.83;;;;;;;10.23;49.29;95782.09;5012990;28;20029;-65
2021/03/26 07:38:00;;;;;;;12.40;4.00;;;;;;;10.36;48.98;95782.22;5012798;28;20030;-64
2021/03/26 07:41:01;;;;;;;11.50;4.30;;;;;;;10.45;49.11;95776.28;5014395;28;20036;-66
2021/03/26 07:43:42;;;;;;;9.93;4.13;;;;;;;10.63;49.06;95778.91;5013218;28;20099;-67
2021/03/26 07:46:26;;;;;;;10.88;4.47;;;;;;;10.77;49.08;95783.53;4993598;28;20548;-67
2021/03/26 07:49:00;;;;;;;23.98;4.82;;;;;;;10.88;48.46;95783.06;4975562;28;20038;-66
2021/03/26 07:51:47;;;;;;;11.07;4.65;;;;;;;11.02;47.94;95782.34;5006958;28;20511;-65
2021/03/26 07:54:33;;;;;;;10.88;4.70;;;;;;;11.14;47.83;95783.47;4995071;28;20396;-62
2021/03/26 07:57:11;;;;;;;17.00;5.20;;;;;;;11.25;47.62;95783.28;5012419;28;20046;-69
2021/03/26 08:00:18;;;;;;;15.13;5.97;;;;;;;11.39;48.02;95781.47;5004807;28;20467;-64
2021/03/26 08:03:02;;;;;;;15.93;5.78;;;;;;;11.47;46.73;95778.13;5001927;28;20396;-66
2021/03/26 08:05:27;;;;;;;12.90;7.13;;;;;;;11.49;46.97;95759.97;5012434;28;20049;-63
2021/03/26 08:08:21;;;;;;;14.50;7.15;;;;;;;11.75;46.71;95778.16;5010006;28;20034;-64
2021/03/26 08:11:04;;;;;;;12.57;6.90;;;;;;;11.87;46.52;95778.47;4994161;28;20022;-63
2021/03/26 08:13:43;;;;;;;40.38;11.73;;;;;;;11.47;46.31;95700.09;5014213;28;20068;-64
2021/03/26 08:16:37;;;;;;;15.80;7.97;;;;;;;12.11;46.23;95778.28;5012811;28;20049;-63
2021/03/26 08:19:34;;;;;;;16.35;7.90;;;;;;;12.17;46.28;95759.19;5012580;28;20499;-62
2021/03/26 08:22:02;;;;;;;18.98;8.88;;;;;;;12.25;45.99;95757.72;4992656;28;20034;-64
2021/03/26 08:25:02;;;;;;;17.60;9.25;;;;;;;12.39;45.84;95771.06;4989842;28;20080;-64
2021/03/26 08:27:42;;;;;;;16.17;9.80;;;;;;;12.45;45.52;95765.28;5011906;28;20061;-62
2021/03/26 08:30:41;;;;;;;14.57;9.48;;;;;;;12.53;45.35;95769.13;5000234;28;20070;-68
2021/03/26 08:33:38;;;;;;;15.85;9.63;;;;;;;12.60;44.88;95771.41;4992238;28;20039;-64
2021/03/26 08:36:23;;;;;;;21.80;11.57;;;;;;;12.62;45.70;95769.19;4991542;28;20043;-64
2021/03/26 08:38:55;;;;;;;13.98;10.73;;;;;;;12.68;45.28;95770.66;4991701;28;20041;-63
2021/03/26 08:41:24;;;;;;;18.85;10.13;;;;;;;12.65;45.43;95745.38;4992027;28;20523;-64
2021/03/26 08:43:53;;;;;;;16.05;10.23;;;;;;;12.76;44.97;95783.31;4992380;28;20105;-64
2021/03/26 08:46:21;;;;;;;15.23;10.43;;;;;;;12.91;44.83;95768.81;4976912;28;20420;-64
2021/03/26 08:49:08;;;;;;;15.93;9.65;;;;;;;13.01;44.77;95766.69;5009558;28;20065;-64
2021/03/26 08:52:02;;;;;;;13.93;10.07;;;;;;;13.07;43.91;95771.91;5010827;28;20495;-65
2021/03/26 08:54:35;;;;;;;13.35;9.48;;;;;;;13.11;43.75;95762.22;4979564;28;20059;-64
2021/03/26 08:57:19;;;;;;;17.23;10.07;;;;;;;13.21;43.42;95764.63;4984704;28;20095;-65
2021/03/26 09:00:19;;;;;;;14.82;9.45;;;;;;;13.35;43.29;95768.03;5011126;28;20034;-63
2021/03/26 09:02:50;;;;;;;14.63;9.10;;;;;;;13.21;43.57;95767.31;4993464;28;20046;-64
2021/03/26 09:05:34;;;;;;;11.98;9.15;;;;;;;13.26;43.53;95764.53;4993621;28;20045;-63
2021/03/26 09:08:38;;;;;;;14.57;8.57;;;;;;;13.48;43.22;95767.16;4993434;28;20042;-63
2021/03/26 09:11:40;;;;;;;13.95;8.77;;;;;;;13.57;43.23;95771.78;5008873;28;20109;-63
2021/03/26 09:14:24;;;;;;;14.95;9.07;;;;;;;13.69;42.97;95763.97;5011119;28;20496;-64
2021/03/26 09:17:16;;;;;;;16.98;9.35;;;;;;;13.70;42.48;95736.91;4993305;28;20044;-64
2021/03/26 09:19:59;;;;;;;15.90;9.52;;;;;;;13.73;41.98;95757.69;5010817;28;20034;-64
2021/03/26 09:22:43;;;;;;;;;;;;;;;13.92;42.03;95765.47;5013211;28;20109;-63
2021/03/26 09:25:37;;;;;;;20.65;9.30;;;;;;;13.68;42.66;95733.78;5011280;28;19917;-65
2021/03/26 09:28:09;;;;;;;16.50;9.82;;;;;;;13.93;42.01;95753.69;5001432;28;20458;-64
2021/03/26 09:30:43;;;;;;;15.98;10.05;;;;;;;13.87;42.03;95748.75;5010545;28;20038;-62
2021/03/26 09:33:13;;;;;;;15.38;9.63;;;;;;;13.99;41.89;95740.94;4992840;28;20042;-63
2021/03/26 09:35:51;;;;;;;16.38;10.55;;;;;;;14.00;41.99;95747.88;5010634;28;20034;-64
2021/03/26 09:38:30;;;;;;;15.77;9.73;;;;;;;14.08;41.49;95743.66;5010515;28;20030;-63
2021/03/26 09:41:04;;;;;;;14.90;9.63;;;;;;;13.53;42.17;95745.66;5010567;28;20018;-64
2021/03/26 09:43:52;;;;;;;14.98;10.57;;;;;;;14.10;41.98;95744.91;5012376;28;20022;-64
2021/03/26 09:46:39;;;;;;;17.33;9.90;;;;;;;14.11;41.90;95741.13;5009521;28;20089;-63
2021/03/26 09:49:13;;;;;;;14.63;10.10;;;;;;;14.32;40.96;95738.66;4990938;28;20121;-65
2021/03/26 09:51:42;;;;;;;18.10;10.88;;;;;;;14.52;41.03;95738.06;4989808;28;20110;-68
2021/03/26 09:54:16;;;;;;;21.92;10.93;;;;;;;14.24;41.79;95726.06;4973474;28;20042;-65
2021/03/26 09:57:00;;;;;;;19.05;10.32;;;;;;;14.62;41.24;95733.53;4972862;28;20031;-66
2021/03/26 09:59:49;;;;;;;14.80;10.30;;;;;;;14.33;40.75;95737.56;4990404;28;20501;-65
2021/03/26 10:02:33;;;;;;;14.07;9.95;;;;;;;14.50;39.33;95721.56;4990509;28;20484;-64
2021/03/26 10:05:27;;;;;;;17.45;10.20;;;;;;;14.56;39.98;95732.88;4976384;28;20419;-65
2021/03/26 10:08:35;;;;;;;19.80;11.45;;;;;;;14.52;39.88;95707.84;4990287;28;20057;-64
2021/03/26 10:11:10;;;;;;;16.85;11.25;;;;;;;14.67;40.02;95719.97;4990651;28;22999;-64
2021/03/26 10:13:50;;;;;;;13.48;9.73;;;;;;;14.75;39.25;95708.50;4992461;28;20018;-64
2021/03/26 10:16:21;;;;;;;18.92;10.20;;;;;;;14.74;39.24;95706.88;4990949;28;20057;-65
2021/03/26 10:19:00;;;;;;;17.52;10.60;;;;;;;15.06;38.64;95719.00;4973087;28;20058;-65
2021/03/26 10:21:30;;;;;;;16.27;10.27;;;;;;;15.14;38.86;95712.03;4986562;28;20111;-64
2021/03/26 10:24:19;;;;;;;16.00;8.75;;;;;;;15.30;38.50;95716.59;5010146;28;20396;-64
2021/03/26 10:27:12;;;;;;;15.85;8.80;;;;;;;15.28;37.25;95713.44;5009858;28;20518;-65
2021/03/26 10:29:53;;;;;;;11.35;8.15;;;;;;;15.27;37.28;95708.41;5009894;28;20064;-65
2021/03/26 10:32:26;;;;;;;13.88;8.45;;;;;;;15.29;37.35;95690.09;5009954;28;20038;-66
2021/03/26 10:34:53;;;;;;;13.85;9.00;;;;;;;15.28;37.07;95701.94;5010066;28;20018;-64
2021/03/26 10:37:38;;;;;;;14.60;9.00;;;;;;;15.49;37.00;95702.81;5011604;28;20061;-64
2021/03/26 10:40:09;;;;;;;15.60;8.88;;;;;;;15.53;37.19;95703.75;5010266;28;20419;-67
2021/03/26 10:43:12;;;;;;;9.57;7.53;;;;;;;15.76;36.15;95698.13;5009690;28;20038;-62
2021/03/26 10:45:57;;;;;;;15.05;8.25;;;;;;;15.76;35.61;95692.78;5009870;28;20045;-64
2021/03/26 10:48:32;;;;;;;10.38;7.65;;;;;;;15.73;35.34;95667.41;5008244;28;20117;-65
2021/03/26 10:51:38;;;;;;;13.15;7.65;;;;;;;15.87;35.18;95685.97;4998433;28;20034;-66
2021/03/26 10:54:11;;;;;;;13.55;7.25;;;;;;;15.88;35.63;95654.56;4966914;28;20053;-63
2021/03/26 10:56:50;;;;;;;12.43;7.68;;;;;;;15.96;34.82;95672.47;4972767;28;20041;-65
2021/03/26 10:59:23;;;;;;;10.25;7.07;;;;;;;15.87;34.78;95643.03;4993123;28;20129;-65
2021/03/26 11:01:51;;;;;;;11.73;6.95;;;;;;;15.98;34.25;95636.19;4995378;28;20084;-65
2021/03/26 11:04:30;;;;;;;9.85;8.20;;;;;;;15.72;34.07;95657.00;5015659;28;20380;-71
2021/03/26 11:07:06;;;;;;;11.75;7.68;;;;;;;15.93;33.85;95647.09;4995540;28;20381;-69
2021/03/26 11:09:54;;;;;;;10.73;8.43;;;;;;;15.99;33.66;95656.53;5009692;28;20049;-67
2021/03/26 11:12:45;;;;;;;10.75;7.97;;;;;;;16.20;34.33;95655.75;5013526;28;20030;-68
2021/03/26 11:15:46;;;;;;;10.63;7.55;;;;;;;16.40;33.85;95640.75;4995829;28;20096;-68
2021/03/26 11:18:14;;;;;;;9.48;7.35;;;;;;;16.40;33.65;95643.44;5010979;28;20526;-66
2021/03/26 11:21:02;;;;;;;8.93;7.00;;;;;;;16.48;33.50;95640.69;5012850;28;20054;-67
2021/03/26 11:23:31;;;;;;;11.43;8.05;;;;;;;16.54;33.04;95634.00;5012985;28;20062;-65
2021/03/26 11:26:05;;;;;;;10.60;7.25;;;;;;;16.67;33.21;95631.34;5013214;28;20455;-66
2021/03/26 11:29:05;;;;;;;11.23;8.32;;;;;;;16.61;33.17;95615.44;4997315;28;20034;-66
2021/03/26 11:31:44;;;;;;;16.85;7.80;;;;;;;16.79;33.35;95626.88;5012632;28;20046;-66
2021/03/26 11:34:21;;;;;;;10.10;6.85;;;;;;;16.79;32.18;95601.91;5013499;28;20042;-67
2021/03/26 11:36:46;;;;;;;13.52;7.45;;;;;;;16.75;32.40;95625.16;5012737;28;20050;-69
2021/03/26 11:39:12;;;;;;;13.60;8.02;;;;;;;16.89;32.91;95620.28;5000485;28;20070;-68
2021/03/26 11:41:42;;;;;;;16.20;8.20;;;;;;;16.86;32.85;95619.03;4993035;28;20450;-68
2021/03/26 11:44:13;;;;;;;9.60;6.97;;;;;;;16.98;34.42;95609.44;4997376;28;20084;-66
2021/03/26 11:46:44;;;;;;;9.80;6.53;;;;;;;17.01;32.02;95606.88;5012555;28;20026;-70
2021/03/26 11:49:16;;;;;;;12.88;6.85;;;;;;;16.25;32.60;95593.81;4995098;28;20027;-69
2021/03/26 11:51:56;;;;;;;7.82;6.30;;;;;;;16.38;32.78;95568.63;5008499;28;20057;-69
2021/03/26 11:54:46;;;;;;;8.45;5.93;;;;;;;16.95;32.30;95602.81;4994648;28;20129;-67
2021/03/26 11:57:11;;;;;;;9.85;6.68;;;;;;;17.06;31.81;95598.59;5012265;28;20145;-66
2021/03/26 11:59:49;;;;;;;12.13;6.70;;;;;;;17.18;31.87;95591.66;4995202;28;20642;-66
2021/03/26 12:02:14;;;;;;;10.75;7.15;;;;;;;17.38;31.63;95586.19;5012556;28;20026;-68
2021/03/26 12:04:46;;;;;;;9.88;6.40;;;;;;;17.39;31.56;95560.06;5012703;28;20022;-66
2021/03/26 12:07:23;;;;;;;12.95;6.78;;;;;;;17.37;30.97;95538.13;5014307;28;20033;-67
2021/03/26 12:09:59;;;;;;;8.35;6.15;;;;;;;17.60;30.45;95578.75;5011116;28;20034;-67
2021/03/26 12:12:37;;;;;;;11.32;7.25;;;;;;;17.65;30.67;95573.16;5012228;28;20034;-66
2021/03/26 12:15:14;;;;;;;8.25;6.15;;;;;;;17.78;30.45;95552.44;5012468;28;20073;-69
2021/03/26 12:17:47;;;;;;;8.15;6.20;;;;;;;18.01;30.56;95553.50;5012291;28;20559;-66
2021/03/26 12:20:16;;;;;;;8.93;6.22;;;;;;;17.99;30.78;95554.97;5011671;28;20088;-68
2021/03/26 12:23:06;;;;;;;10.18;7.30;;;;;;;18.13;30.27;95560.75;5012087;28;20424;-69
2021/03/26 12:25:49;;;;;;;9.45;6.60;;;;;;;18.28;30.26;95553.88;5013739;28;20043;-68
2021/03/26 12:28:33;;;;;;;7.47;5.35;;;;;;;18.40;28.78;95556.50;5012155;28;20038;-67